Time;durP1;ratioP1;P1;durP2;ratioP2;P2;SDS_P1;SDS_P2;PMS_P1;PMS_P2;Temp;Humidity;BMP_temperature;BMP_pressure;BME280_temperature;BME280_humidity;BME280_pressure;Samples;Min_cycle;Max_cycle;Signal;HPM_P1;HPM_P2
2021/05/02 00:00:48;;;;;;;;;;;20.30;40.80;;;;;;487248;244;1451;-45
2021/05/02 00:02:49;;;;;;;;;;;20.40;40.80;;;;;;487156;243;1298;-44
2021/05/02 00:04:50;;;;;;;;;;;20.40;40.80;;;;;;487427;243;2186;-44
2021/05/02 00:06:52;;;;;;;;;;;20.40;40.70;;;;;;487376;244;1353;-44
2021/05/02 00:08:53;;;;;;;;;;;20.40;40.70;;;;;;487316;244;1090;-44
2021/05/02 00:10:54;;;;;;;;;;;20.40;40.60;;;;;;487380;244;1199;-44
2021/05/02 00:12:56;;;;;;;;;;;20.40;40.60;;;;;;487183;244;1595;-45
2021/05/02 00:14:57;;;;;;;;;;;20.50;40.60;;;;;;487698;243;1066;-44
2021/05/02 00:16:58;;;;;;;;;;;20.50;40.60;;;;;;487182;243;1204;-44
2021/05/02 00:18:59;;;;;;;;;;;20.50;40.60;;;;;;487360;243;1092;-44
2021/05/02 00:21:01;;;;;;;;;;;20.50;40.50;;;;;;487164;244;1243;-45
2021/05/02 00:23:02;;;;;;;;;;;20.60;40.50;;;;;;487574;244;1148;-45
2021/05/02 00:25:03;;;;;;;;;;;20.60;40.50;;;;;;487792;243;2178;-44
2021/05/02 00:27:04;;;;;;;;;;;20.60;40.50;;;;;;487273;244;1429;-44
2021/05/02 00:29:06;;;;;;;;;;;20.60;40.40;;;;;;487392;243;1037;-44
2021/05/02 00:31:08;;;;;;;;;;;20.60;40.40;;;;;;487416;243;1269;-44
2021/05/02 00:33:08;;;;;;;;;;;20.60;40.30;;;;;;487163;244;1599;-44
2021/05/02 00:35:10;;;;;;;;;;;20.70;40.40;;;;;;487618;244;1074;-44
2021/05/02 00:37:11;;;;;;;;;;;20.70;40.40;;;;;;487352;243;1370;-44
2021/05/02 00:39:12;;;;;;;;;;;20.70;40.30;;;;;;487492;244;1146;-45
2021/05/02 00:41:14;;;;;;;;;;;20.70;40.30;;;;;;487197;244;1234;-44
2021/05/02 00:43:15;;;;;;;;;;;20.70;40.20;;;;;;487347;244;1336;-45
2021/05/02 00:45:16;;;;;;;;;;;20.70;40.20;;;;;;487255;244;2127;-44
2021/05/02 00:47:17;;;;;;;;;;;20.70;40.20;;;;;;487223;244;1210;-45
2021/05/02 00:49:19;;;;;;;;;;;20.80;40.20;;;;;;487509;243;1237;-44
2021/05/02 00:51:20;;;;;;;;;;;20.80;40.20;;;;;;487221;244;1445;-45
2021/05/02 00:53:21;;;;;;;;;;;20.80;40.20;;;;;;487315;244;1314;-45
2021/05/02 00:55:22;;;;;;;;;;;20.80;40.20;;;;;;487423;244;1049;-45
2021/05/02 00:57:24;;;;;;;;;;;20.80;40.20;;;;;;487343;244;1143;-44
2021/05/02 00:59:25;;;;;;;;;;;20.80;40.20;;;;;;487732;244;1053;-45
2021/05/02 01:01:26;;;;;;;;;;;20.80;40.20;;;;;;487411;242;1167;-44
2021/05/02 01:03:28;;;;;;;;;;;20.50;40.80;;;;;;487572;244;1057;-44
2021/05/02 01:05:29;;;;;;;;;;;20.00;41.60;;;;;;487340;244;2116;-44
2021/05/02 01:07:30;;;;;;;;;;;19.80;42.40;;;;;;487246;244;1205;-45
2021/05/02 01:09:31;;;;;;;;;;;19.60;42.70;;;;;;487276;244;1090;-44
2021/05/02 01:11:33;;;;;;;;;;;19.50;43.00;;;;;;487481;244;1159;-44
2021/05/02 01:13:34;;;;;;;;;;;19.50;43.20;;;;;;487561;244;1062;-44
2021/05/02 01:15:35;;;;;;;;;;;19.30;43.40;;;;;;487249;244;1110;-44
2021/05/02 01:17:37;;;;;;;;;;;19.30;43.50;;;;;;487497;244;1490;-44
2021/05/02 01:19:38;;;;;;;;;;;19.30;43.50;;;;;;487489;244;965;-44
2021/05/02 01:21:39;;;;;;;;;;;19.30;43.50;;;;;;487252;244;1137;-45
2021/05/02 01:23:40;;;;;;;;;;;19.30;43.60;;;;;;487814;243;1043;-44
2021/05/02 01:25:42;;;;;;;;;;;19.20;43.70;;;;;;487752;244;2135;-44
2021/05/02 01:27:43;;;;;;;;;;;19.20;43.70;;;;;;487341;243;1147;-44
2021/05/02 01:29:44;;;;;;;;;;;19.10;43.90;;;;;;487711;243;1083;-44
2021/05/02 01:31:45;;;;;;;;;;;19.10;44.10;;;;;;487253;244;1107;-44
2021/05/02 01:33:47;;;;;;;;;;;19.00;44.20;;;;;;487253;243;1113;-44
2021/05/02 01:35:48;;;;;;;;;;;19.00;44.30;;;;;;487397;244;1063;-44
2021/05/02 01:37:49;;;;;;;;;;;19.00;44.30;;;;;;487219;243;1089;-44
2021/05/02 01:39:51;;;;;;;;;;;18.90;44.40;;;;;;487262;244;1083;-44
2021/05/02 01:41:52;;;;;;;;;;;18.90;44.40;;;;;;487346;243;1243;-44
2021/05/02 01:43:53;;;;;;;;;;;18.90;44.50;;;;;;487379;243;2187;-44
2021/05/02 01:45:55;;;;;;;;;;;18.90;44.50;;;;;;487298;243;1098;-44
2021/05/02 01:47:56;;;;;;;;;;;18.80;44.60;;;;;;487335;244;1271;-44
2021/05/02 01:49:58;;;;;;;;;;;18.80;44.50;;;;;;487786;243;1064;-44
2021/05/02 01:51:59;;;;;;;;;;;18.80;44.60;;;;;;487405;243;1141;-44
2021/05/02 01:54:00;;;;;;;;;;;18.80;44.60;;;;;;487350;244;1080;-44
2021/05/02 01:56:02;;;;;;;;;;;18.80;44.70;;;;;;487267;244;1156;-44
2021/05/02 01:58:03;;;;;;;;;;;18.80;44.70;;;;;;487207;243;1137;-44
2021/05/02 02:00:04;;;;;;;;;;;18.70;44.80;;;;;;487539;244;1087;-44
2021/05/02 02:02:05;;;;;;;;;;;18.70;44.80;;;;;;487163;244;1107;-44
2021/05/02 02:04:08;;;;;;;;;;;18.70;44.80;;;;;;487415;244;2202;-44
2021/05/02 02:06:09;;;;;;;;;;;18.70;44.80;;;;;;487209;244;2252;-44
2021/05/02 02:08:10;;;;;;;;;;;18.60;44.80;;;;;;487229;244;1108;-44
2021/05/02 02:10:11;;;;;;;;;;;18.70;44.90;;;;;;487361;243;1090;-44
2021/05/02 02:12:12;;;;;;;;;;;18.60;44.90;;;;;;487280;244;1182;-44
2021/05/02 02:14:14;;;;;;;;;;;18.70;44.80;;;;;;487316;244;1100;-44
2021/05/02 02:16:15;;;;;;;;;;;18.70;44.80;;;;;;487315;242;1173;-44
2021/05/02 02:18:16;;;;;;;;;;;18.60;44.90;;;;;;487246;244;1060;-44
2021/05/02 02:20:18;;;;;;;;;;;18.60;45.00;;;;;;487320;244;1112;-44
2021/05/02 02:22:19;;;;;;;;;;;18.60;44.80;;;;;;487179;244;1347;-44
2021/05/02 02:24:20;;;;;;;;;;;18.60;45.00;;;;;;487474;244;2143;-44
2021/05/02 02:26:21;;;;;;;;;;;18.60;45.10;;;;;;487467;244;1295;-44
2021/05/02 02:28:23;;;;;;;;;;;18.60;45.10;;;;;;487349;244;1145;-44
2021/05/02 02:30:24;;;;;;;;;;;18.50;45.20;;;;;;487383;244;1339;-44
2021/05/02 02:32:25;;;;;;;;;;;18.50;45.20;;;;;;487275;243;1161;-44
2021/05/02 02:34:27;;;;;;;;;;;18.50;45.20;;;;;;487352;243;1074;-44
2021/05/02 02:36:28;;;;;;;;;;;18.50;45.10;;;;;;487236;244;1346;-44
2021/05/02 02:38:29;;;;;;;;;;;18.60;45.10;;;;;;487581;244;1031;-44
2021/05/02 02:40:30;;;;;;;;;;;18.50;45.00;;;;;;487726;244;1580;-44
2021/05/02 02:42:32;;;;;;;;;;;18.50;45.20;;;;;;487169;244;1609;-44
2021/05/02 02:44:33;;;;;;;;;;;18.50;45.10;;;;;;487733;244;2150;-43
2021/05/02 02:46:34;;;;;;;;;;;18.50;45.20;;;;;;487617;243;1694;-44
2021/05/02 02:48:35;;;;;;;;;;;18.40;45.20;;;;;;487462;244;1047;-44
2021/05/02 02:50:37;;;;;;;;;;;18.40;45.20;;;;;;487374;243;1062;-44
2021/05/02 02:52:38;;;;;;;;;;;18.40;45.30;;;;;;487346;243;1262;-44
2021/05/02 02:54:39;;;;;;;;;;;18.40;45.20;;;;;;487235;243;1257;-44
2021/05/02 02:56:41;;;;;;;;;;;18.40;45.30;;;;;;487341;243;1431;-44
2021/05/02 02:58:42;;;;;;;;;;;18.40;45.30;;;;;;487264;244;1142;-44
2021/05/02 03:00:43;;;;;;;;;;;18.40;45.30;;;;;;487202;244;1234;-44
2021/05/02 03:02:45;;;;;;;;;;;18.40;45.20;;;;;;487633;244;1091;-44
2021/05/02 03:04:46;;;;;;;;;;;18.50;45.30;;;;;;487365;244;2139;-44
2021/05/02 03:06:47;;;;;;;;;;;18.40;45.30;;;;;;487249;244;1355;-44
2021/05/02 03:08:49;;;;;;;;;;;18.40;45.30;;;;;;487330;244;1048;-44
2021/05/02 03:10:50;;;;;;;;;;;18.40;45.20;;;;;;487410;244;1276;-44
2021/05/02 03:12:52;;;;;;;;;;;18.40;45.30;;;;;;487257;244;1195;-44
2021/05/02 03:14:53;;;;;;;;;;;18.40;45.30;;;;;;487483;244;1147;-44
2021/05/02 03:16:54;;;;;;;;;;;18.40;45.20;;;;;;487541;244;1468;-44
2021/05/02 03:18:55;;;;;;;;;;;18.40;45.30;;;;;;487295;244;1239;-44
2021/05/02 03:20:57;;;;;;;;;;;18.30;45.40;;;;;;487316;244;1197;-44
2021/05/02 03:22:58;;;;;;;;;;;18.30;45.40;;;;;;487538;243;1053;-44
2021/05/02 03:24:59;;;;;;;;;;;18.30;45.40;;;;;;487282;243;2182;-44
2021/05/02 03:27:00;;;;;;;;;;;18.30;45.50;;;;;;487216;243;1067;-44
2021/05/02 03:29:02;;;;;;;;;;;18.30;45.40;;;;;;487311;244;1169;-44
2021/05/02 03:31:03;;;;;;;;;;;18.30;45.40;;;;;;487360;244;1083;-44
2021/05/02 03:33:04;;;;;;;;;;;18.30;45.40;;;;;;487252;244;1124;-44
2021/05/02 03:35:06;;;;;;;;;;;18.30;45.50;;;;;;487306;244;1061;-44
2021/05/02 03:37:07;;;;;;;;;;;18.20;45.50;;;;;;487344;244;1145;-44
2021/05/02 03:39:08;;;;;;;;;;;18.30;45.50;;;;;;487313;244;1076;-44
2021/05/02 03:41:09;;;;;;;;;;;18.20;45.50;;;;;;487706;244;1086;-44
2021/05/02 03:43:11;;;;;;;;;;;18.20;45.50;;;;;;487649;236;1245;-44
2021/05/02 03:45:12;;;;;;;;;;;18.30;45.60;;;;;;487474;244;2150;-44
2021/05/02 03:47:13;;;;;;;;;;;18.20;45.60;;;;;;487212;244;1065;-44
2021/05/02 03:49:14;;;;;;;;;;;18.20;45.60;;;;;;487274;244;1103;-44
2021/05/02 03:51:16;;;;;;;;;;;18.20;45.70;;;;;;487435;243;1046;-44
2021/05/02 03:53:17;;;;;;;;;;;18.20;45.60;;;;;;487241;244;1089;-45
2021/05/02 03:55:18;;;;;;;;;;;18.20;45.70;;;;;;487260;244;1084;-44
2021/05/02 03:57:20;;;;;;;;;;;18.20;45.70;;;;;;487273;243;1036;-44
2021/05/02 03:59:21;;;;;;;;;;;18.20;45.70;;;;;;487348;244;1176;-44
2021/05/02 04:01:22;;;;;;;;;;;18.20;45.70;;;;;;487474;243;1173;-44
2021/05/02 04:03:23;;;;;;;;;;;18.20;45.70;;;;;;487407;243;1045;-44
2021/05/02 04:05:25;;;;;;;;;;;18.20;45.70;;;;;;487403;243;2209;-44
2021/05/02 04:07:26;;;;;;;;;;;18.20;45.70;;;;;;487270;244;1120;-44
2021/05/02 04:09:27;;;;;;;;;;;18.10;45.70;;;;;;487278;244;1023;-44
2021/05/02 04:11:29;;;;;;;;;;;18.20;45.60;;;;;;487196;244;1582;-44
2021/05/02 04:13:30;;;;;;;;;;;18.10;45.70;;;;;;487260;244;1254;-44
2021/05/02 04:15:31;;;;;;;;;;;18.20;45.70;;;;;;487574;244;1056;-44
2021/05/02 04:17:32;;;;;;;;;;;18.20;45.80;;;;;;487656;243;1219;-44
2021/05/02 04:19:34;;;;;;;;;;;18.10;45.70;;;;;;487503;244;1089;-44
2021/05/02 04:21:35;;;;;;;;;;;18.10;45.80;;;;;;487179;244;1269;-44
2021/05/02 04:23:36;;;;;;;;;;;18.10;45.80;;;;;;487783;244;1070;-44
2021/05/02 04:25:38;;;;;;;;;;;18.10;45.80;;;;;;487346;244;2183;-44
2021/05/02 04:27:39;;;;;;;;;;;18.10;45.90;;;;;;487297;244;1083;-44
2021/05/02 04:29:40;;;;;;;;;;;18.10;45.90;;;;;;487500;244;1139;-45
2021/05/02 04:31:41;;;;;;;;;;;18.10;45.80;;;;;;487368;243;1059;-44
2021/05/02 04:33:43;;;;;;;;;;;18.10;45.90;;;;;;487352;243;1072;-44
2021/05/02 04:35:44;;;;;;;;;;;18.00;45.80;;;;;;487307;244;1085;-44
2021/05/02 04:37:45;;;;;;;;;;;18.10;45.90;;;;;;487232;244;1079;-44
2021/05/02 04:39:46;;;;;;;;;;;18.10;45.80;;;;;;487398;243;1087;-44
2021/05/02 04:41:48;;;;;;;;;;;18.10;45.70;;;;;;487245;244;1083;-44
2021/05/02 04:43:49;;;;;;;;;;;18.10;45.80;;;;;;487323;243;1146;-44
2021/05/02 04:45:50;;;;;;;;;;;18.10;45.90;;;;;;487314;244;2190;-44
2021/05/02 04:47:52;;;;;;;;;;;18.00;45.90;;;;;;487282;244;1029;-44
2021/05/02 04:49:53;;;;;;;;;;;18.00;45.90;;;;;;487600;244;1084;-44
2021/05/02 04:51:54;;;;;;;;;;;18.10;45.90;;;;;;487424;244;1103;-44
2021/05/02 04:53:56;;;;;;;;;;;18.00;45.90;;;;;;487367;244;1077;-44
2021/05/02 04:55:57;;;;;;;;;;;18.00;45.90;;;;;;487795;243;1041;-44
2021/05/02 04:58:01;;;;;;;;;;;18.00;46.00;;;;;;487258;244;1116;-44
2021/05/02 05:00:00;;;;;;;;;;;18.00;45.90;;;;;;487434;243;2319;-44
2021/05/02 05:02:01;;;;;;;;;;;18.10;45.90;;;;;;487812;244;1046;-44
2021/05/02 05:04:02;;;;;;;;;;;18.00;45.90;;;;;;487293;244;1069;-44
2021/05/02 05:06:04;;;;;;;;;;;18.00;45.90;;;;;;487474;244;2447;-44
2021/05/02 05:08:06;;;;;;;;;;;18.00;45.90;;;;;;487427;244;1122;-44
2021/05/02 05:10:06;;;;;;;;;;;18.00;46.00;;;;;;487321;244;1080;-44
2021/05/02 05:12:08;;;;;;;;;;;18.00;46.00;;;;;;487527;244;1141;-44
2021/05/02 05:14:09;;;;;;;;;;;17.90;46.00;;;;;;487501;244;1511;-44
2021/05/02 05:16:10;;;;;;;;;;;18.00;46.10;;;;;;487281;241;1235;-44
2021/05/02 05:18:12;;;;;;;;;;;17.90;46.00;;;;;;487521;243;1099;-44
2021/05/02 05:20:13;;;;;;;;;;;17.90;46.10;;;;;;487270;244;1045;-44
2021/05/02 05:22:15;;;;;;;;;;;17.90;46.10;;;;;;487265;244;1156;-45
2021/05/02 05:24:16;;;;;;;;;;;17.90;46.10;;;;;;487571;244;1089;-44
2021/05/02 05:26:17;;;;;;;;;;;17.90;46.10;;;;;;487443;243;2197;-44
2021/05/02 05:28:18;;;;;;;;;;;17.90;46.00;;;;;;487601;244;1070;-44
2021/05/02 05:30:20;;;;;;;;;;;17.90;46.00;;;;;;487412;244;1237;-44
2021/05/02 05:32:21;;;;;;;;;;;17.90;46.10;;;;;;487347;243;1077;-44
2021/05/02 05:34:22;;;;;;;;;;;17.90;46.20;;;;;;487268;243;1253;-44
2021/05/02 05:36:24;;;;;;;;;;;17.80;46.10;;;;;;487499;244;1163;-44
2021/05/02 05:38:25;;;;;;;;;;;17.80;46.10;;;;;;487515;244;1079;-44
2021/05/02 05:40:26;;;;;;;;;;;17.90;46.10;;;;;;487224;243;1194;-44
2021/05/02 05:42:27;;;;;;;;;;;17.90;46.00;;;;;;487337;243;1358;-44
2021/05/02 05:44:29;;;;;;;;;;;17.90;46.10;;;;;;487514;236;1319;-44
2021/05/02 05:46:30;;;;;;;;;;;17.90;46.10;;;;;;487520;244;2190;-44
2021/05/02 05:48:32;;;;;;;;;;;17.90;46.10;;;;;;487573;244;1059;-44
2021/05/02 05:50:33;;;;;;;;;;;17.90;46.20;;;;;;487320;244;1675;-44
2021/05/02 05:52:34;;;;;;;;;;;17.80;46.20;;;;;;487329;244;1265;-44
2021/05/02 05:54:36;;;;;;;;;;;17.80;46.20;;;;;;487518;244;1091;-44
2021/05/02 05:56:38;;;;;;;;;;;17.80;46.20;;;;;;487230;244;1514;-44
2021/05/02 05:58:38;;;;;;;;;;;17.80;46.20;;;;;;487425;244;1907;-44
2021/05/02 06:00:40;;;;;;;;;;;17.90;46.20;;;;;;487201;244;1284;-44
2021/05/02 06:02:41;;;;;;;;;;;18.00;45.90;;;;;;487250;244;1136;-44
2021/05/02 06:04:42;;;;;;;;;;;18.30;45.00;;;;;;487259;244;1108;-44
2021/05/02 06:06:43;;;;;;;;;;;18.70;44.20;;;;;;487367;243;2194;-44
2021/05/02 06:08:45;;;;;;;;;;;18.90;43.70;;;;;;487385;243;1081;-44
2021/05/02 06:10:46;;;;;;;;;;;19.10;43.30;;;;;;487246;244;1186;-44
2021/05/02 06:12:47;;;;;;;;;;;19.20;42.90;;;;;;487284;243;1190;-44
2021/05/02 06:14:49;;;;;;;;;;;19.30;42.70;;;;;;487379;244;1051;-44
2021/05/02 06:16:50;;;;;;;;;;;19.40;42.50;;;;;;487330;244;1248;-44
2021/05/02 06:18:51;;;;;;;;;;;19.50;42.30;;;;;;487311;244;1066;-45
2021/05/02 06:20:54;;;;;;;;;;;19.60;42.20;;;;;;487504;243;1165;-44
2021/05/02 06:22:54;;;;;;;;;;;19.60;42.10;;;;;;487228;244;1940;-44
2021/05/02 06:24:55;;;;;;;;;;;19.60;42.00;;;;;;487333;244;1210;-44
2021/05/02 06:26:56;;;;;;;;;;;19.70;41.90;;;;;;487251;244;2119;-44
2021/05/02 06:28:58;;;;;;;;;;;19.70;41.80;;;;;;487218;244;1124;-44
2021/05/02 06:30:59;;;;;;;;;;;19.70;41.80;;;;;;487139;244;1317;-45
2021/05/02 06:33:00;;;;;;;;;;;19.80;41.70;;;;;;487338;244;1308;-45
2021/05/02 06:35:01;;;;;;;;;;;19.80;41.60;;;;;;487556;243;1304;-44
2021/05/02 06:37:03;;;;;;;;;;;19.90;41.60;;;;;;487277;244;1191;-44
2021/05/02 06:39:04;;;;;;;;;;;19.90;41.50;;;;;;487357;243;1124;-44
2021/05/02 06:41:05;;;;;;;;;;;20.00;41.50;;;;;;487304;243;1183;-44
2021/05/02 06:43:08;;;;;;;;;;;20.00;41.40;;;;;;487353;244;1032;-45
2021/05/02 06:45:08;;;;;;;;;;;20.00;41.30;;;;;;487530;243;2275;-45
2021/05/02 06:47:09;;;;;;;;;;;20.00;41.20;;;;;;487350;244;2203;-44
2021/05/02 06:49:11;;;;;;;;;;;20.10;41.20;;;;;;487469;243;1143;-44
2021/05/02 06:51:12;;;;;;;;;;;20.10;41.20;;;;;;487230;244;1084;-44
2021/05/02 06:53:13;;;;;;;;;;;20.10;41.10;;;;;;487256;244;1041;-44
2021/05/02 06:55:14;;;;;;;;;;;20.10;41.10;;;;;;487583;244;1088;-45
2021/05/02 06:57:16;;;;;;;;;;;20.20;41.10;;;;;;487496;243;1087;-45
2021/05/02 06:59:17;;;;;;;;;;;20.20;41.00;;;;;;487271;244;1232;-45
2021/05/02 07:01:18;;;;;;;;;;;20.20;41.00;;;;;;487249;244;1175;-44
2021/05/02 07:03:21;;;;;;;;;;;20.20;41.00;;;;;;487311;243;1050;-44
2021/05/02 07:05:21;;;;;;;;;;;20.20;40.90;;;;;;487504;244;2173;-44
2021/05/02 07:07:22;;;;;;;;;;;20.30;40.90;;;;;;487269;244;2198;-44
2021/05/02 07:09:24;;;;;;;;;;;20.30;40.80;;;;;;487272;244;1091;-44
2021/05/02 07:11:25;;;;;;;;;;;20.30;40.80;;;;;;487413;244;1101;-44
2021/05/02 07:13:27;;;;;;;;;;;20.30;40.80;;;;;;487345;244;1080;-44
2021/05/02 07:15:27;;;;;;;;;;;20.40;40.80;;;;;;487657;244;1529;-45
2021/05/02 07:17:29;;;;;;;;;;;20.40;40.80;;;;;;487267;244;1214;-45
2021/05/02 07:19:30;;;;;;;;;;;20.40;40.80;;;;;;487423;244;1236;-44
2021/05/02 07:21:31;;;;;;;;;;;20.40;40.80;;;;;;487462;244;1278;-44
2021/05/02 07:23:33;;;;;;;;;;;20.40;40.70;;;;;;487274;244;1118;-45
2021/05/02 07:25:34;;;;;;;;;;;20.40;40.70;;;;;;487508;244;1082;-44
2021/05/02 07:27:35;;;;;;;;;;;20.40;40.70;;;;;;487257;243;2197;-44
2021/05/02 07:29:36;;;;;;;;;;;20.50;40.60;;;;;;487634;244;1078;-44
2021/05/02 07:31:38;;;;;;;;;;;20.50;40.60;;;;;;487527;244;1186;-45
2021/05/02 07:33:39;;;;;;;;;;;20.50;40.60;;;;;;487414;243;1045;-45
2021/05/02 07:35:40;;;;;;;;;;;20.50;40.60;;;;;;487425;243;1484;-45
2021/05/02 07:37:42;;;;;;;;;;;20.50;40.50;;;;;;487248;244;1206;-44
2021/05/02 07:39:43;;;;;;;;;;;20.50;40.60;;;;;;487445;243;1036;-45
2021/05/02 07:41:44;;;;;;;;;;;20.50;40.50;;;;;;487207;244;1257;-45
2021/05/02 07:43:45;;;;;;;;;;;20.60;40.50;;;;;;487416;244;1103;-45
2021/05/02 07:45:47;;;;;;;;;;;20.60;40.50;;;;;;487391;244;1781;-44
2021/05/02 07:47:48;;;;;;;;;;;20.60;40.50;;;;;;487142;244;2135;-44
2021/05/02 07:49:49;;;;;;;;;;;20.60;40.50;;;;;;487209;244;1051;-44
2021/05/02 07:51:51;;;;;;;;;;;20.60;40.50;;;;;;487300;243;1506;-44
2021/05/02 07:53:52;;;;;;;;;;;20.60;40.50;;;;;;487236;244;1229;-44
2021/05/02 07:55:53;;;;;;;;;;;20.60;40.50;;;;;;487281;244;1133;-45
2021/05/02 07:57:54;;;;;;;;;;;20.60;40.40;;;;;;487207;243;1279;-45
2021/05/02 07:59:56;;;;;;;;;;;20.70;40.50;;;;;;487420;244;1055;-45
2021/05/02 08:01:57;;;;;;;;;;;20.60;40.40;;;;;;487340;243;1116;-44
2021/05/02 08:03:58;;;;;;;;;;;20.70;40.40;;;;;;487712;243;1064;-44
2021/05/02 08:05:59;;;;;;;;;;;20.70;40.40;;;;;;487408;244;1069;-45
2021/05/02 08:08:01;;;;;;;;;;;20.70;40.40;;;;;;487478;244;2108;-45
2021/05/02 08:10:02;;;;;;;;;;;20.70;40.40;;;;;;487246;244;1142;-45
2021/05/02 08:12:03;;;;;;;;;;;20.70;40.30;;;;;;487318;244;1056;-44
2021/05/02 08:14:05;;;;;;;;;;;20.70;40.30;;;;;;487392;243;1111;-45
2021/05/02 08:16:06;;;;;;;;;;;20.70;40.40;;;;;;487289;244;1070;-45
2021/05/02 08:18:07;;;;;;;;;;;20.80;40.40;;;;;;487298;243;1146;-45
2021/05/02 08:20:08;;;;;;;;;;;20.70;40.30;;;;;;487466;244;1034;-44
2021/05/02 08:22:10;;;;;;;;;;;20.70;40.30;;;;;;487338;243;1090;-44
2021/05/02 08:24:12;;;;;;;;;;;20.80;40.30;;;;;;487429;244;1071;-45
2021/05/02 08:26:13;;;;;;;;;;;20.80;40.30;;;;;;487424;244;2135;-45
2021/05/02 08:28:14;;;;;;;;;;;20.80;40.30;;;;;;487295;244;1040;-44
2021/05/02 08:30:16;;;;;;;;;;;20.80;40.30;;;;;;487235;243;1128;-44
2021/05/02 08:32:17;;;;;;;;;;;20.80;40.30;;;;;;487534;243;1159;-45
2021/05/02 08:34:18;;;;;;;;;;;20.80;40.30;;;;;;487267;243;1235;-44
2021/05/02 08:36:20;;;;;;;;;;;20.80;40.30;;;;;;487219;244;1222;-45
2021/05/02 08:38:21;;;;;;;;;;;20.90;40.30;;;;;;487399;244;1065;-45
2021/05/02 08:40:22;;;;;;;;;;;20.90;40.30;;;;;;487242;244;1219;-44
2021/05/02 08:42:23;;;;;;;;;;;20.90;40.20;;;;;;487520;244;1046;-44
2021/05/02 08:44:25;;;;;;;;;;;20.90;40.20;;;;;;487223;244;1064;-45
2021/05/02 08:46:26;;;;;;;;;;;20.90;40.20;;;;;;487194;244;2139;-45
2021/05/02 08:48:27;;;;;;;;;;;20.90;40.20;;;;;;487295;243;1319;-45
2021/05/02 08:50:28;;;;;;;;;;;20.90;40.20;;;;;;487266;244;1063;-45
2021/05/02 08:52:30;;;;;;;;;;;20.90;40.20;;;;;;487553;244;1199;-45
2021/05/02 08:54:31;;;;;;;;;;;20.90;40.10;;;;;;487237;244;1080;-45
2021/05/02 08:56:32;;;;;;;;;;;20.90;40.20;;;;;;487586;244;1103;-45
2021/05/02 08:58:34;;;;;;;;;;;20.90;40.20;;;;;;487497;244;1040;-44
2021/05/02 09:00:35;;;;;;;;;;;20.90;40.10;;;;;;487440;244;1049;-45
2021/05/02 09:02:36;;;;;;;;;;;21.00;40.20;;;;;;487211;244;1254;-44
2021/05/02 09:04:40;;;;;;;;;;;21.00;40.20;;;;;;487235;243;1132;-44
2021/05/02 09:06:40;;;;;;;;;;;21.00;40.20;;;;;;487250;244;2139;-45
2021/05/02 09:08:41;;;;;;;;;;;21.00;40.20;;;;;;487190;244;1049;-44
2021/05/02 09:10:42;;;;;;;;;;;21.00;40.20;;;;;;487701;244;1188;-45
2021/05/02 09:12:44;;;;;;;;;;;21.00;40.20;;;;;;487251;244;1558;-45
2021/05/02 09:14:45;;;;;;;;;;;21.00;40.20;;;;;;487369;244;1095;-45
2021/05/02 09:16:46;;;;;;;;;;;21.00;40.10;;;;;;487296;244;1394;-44
2021/05/02 09:18:49;;;;;;;;;;;21.00;40.10;;;;;;487380;244;1189;-44
2021/05/02 09:20:52;;;;;;;;;;;21.10;40.10;;;;;;487247;244;1483;-45
2021/05/02 09:22:50;;;;;;;;;;;21.00;40.00;;;;;;487192;243;2019;-44
2021/05/02 09:24:51;;;;;;;;;;;21.10;40.10;;;;;;487327;244;1066;-45
2021/05/02 09:26:53;;;;;;;;;;;21.00;40.10;;;;;;487534;243;2214;-45
2021/05/02 09:28:55;;;;;;;;;;;21.10;40.10;;;;;;487527;244;1085;-45
2021/05/02 09:30:55;;;;;;;;;;;21.00;40.10;;;;;;487150;244;1962;-45
2021/05/02 09:32:57;;;;;;;;;;;21.00;40.00;;;;;;487452;244;1288;-44
2021/05/02 09:34:58;;;;;;;;;;;21.10;40.10;;;;;;487210;244;1083;-45
2021/05/02 09:37:02;;;;;;;;;;;21.10;40.00;;;;;;487152;243;1076;-44
2021/05/02 09:39:01;;;;;;;;;;;21.10;40.10;;;;;;487080;244;2127;-45
2021/05/02 09:41:02;;;;;;;;;;;21.10;40.10;;;;;;487333;244;1060;-45
2021/05/02 09:43:03;;;;;;;;;;;21.10;40.00;;;;;;487279;244;1067;-45
2021/05/02 09:45:05;;;;;;;;;;;21.10;40.10;;;;;;487545;244;1050;-45
2021/05/02 09:47:06;;;;;;;;;;;21.10;40.10;;;;;;487268;244;2143;-45
2021/05/02 09:49:07;;;;;;;;;;;21.10;40.00;;;;;;487423;244;1153;-44
2021/05/02 09:51:08;;;;;;;;;;;21.20;40.00;;;;;;487535;244;1102;-45
2021/05/02 09:53:10;;;;;;;;;;;21.10;40.00;;;;;;487767;243;1094;-45
2021/05/02 09:55:11;;;;;;;;;;;21.20;40.10;;;;;;487240;244;1177;-45
2021/05/02 09:57:12;;;;;;;;;;;21.20;39.80;;;;;;487383;244;1218;-45
2021/05/02 09:59:14;;;;;;;;;;;21.00;40.20;;;;;;487313;243;1090;-44
2021/05/02 10:01:15;;;;;;;;;;;20.50;41.20;;;;;;487694;244;1152;-44
2021/05/02 10:03:16;;;;;;;;;;;20.20;42.00;;;;;;487308;243;1172;-44
2021/05/02 10:05:17;;;;;;;;;;;19.90;42.60;;;;;;487218;244;1086;-44
2021/05/02 10:07:19;;;;;;;;;;;19.60;43.10;;;;;;487246;243;2178;-44
2021/05/02 10:09:20;;;;;;;;;;;19.50;43.50;;;;;;487280;244;1084;-44
2021/05/02 10:11:21;;;;;;;;;;;19.40;43.80;;;;;;487335;244;1241;-44
2021/05/02 10:13:23;;;;;;;;;;;19.30;43.90;;;;;;487322;243;1100;-44
2021/05/02 10:15:24;;;;;;;;;;;19.30;44.10;;;;;;487421;243;1049;-44
2021/05/02 10:17:25;;;;;;;;;;;19.20;44.30;;;;;;487227;244;1494;-44
2021/05/02 10:19:26;;;;;;;;;;;19.20;44.30;;;;;;487441;244;1188;-44
2021/05/02 10:21:28;;;;;;;;;;;19.10;44.40;;;;;;487108;244;1272;-44
2021/05/02 10:23:30;;;;;;;;;;;19.10;44.50;;;;;;487444;244;1077;-44
2021/05/02 10:25:30;;;;;;;;;;;19.10;44.60;;;;;;487271;243;1388;-45
2021/05/02 10:27:31;;;;;;;;;;;19.00;44.70;;;;;;487258;243;2178;-44
2021/05/02 10:29:33;;;;;;;;;;;19.00;44.70;;;;;;487203;244;1097;-44
2021/05/02 10:31:38;;;;;;;;;;;19.00;44.80;;;;;;487336;241;1160;-44
2021/05/02 10:33:36;;;;;;;;;;;18.90;44.80;;;;;;487083;244;2440;-44
2021/05/02 10:35:37;;;;;;;;;;;18.90;44.90;;;;;;487390;243;2379;-44
2021/05/02 10:37:40;;;;;;;;;;;18.90;44.90;;;;;;487356;243;1262;-44
2021/05/02 10:39:40;;;;;;;;;;;18.90;44.90;;;;;;487591;243;1525;-44
2021/05/02 10:41:41;;;;;;;;;;;18.80;44.90;;;;;;487253;243;1573;-44
2021/05/02 10:43:43;;;;;;;;;;;18.80;44.90;;;;;;487259;244;1225;-44
2021/05/02 10:45:45;;;;;;;;;;;18.80;45.00;;;;;;487408;244;1177;-44
2021/05/02 10:47:46;;;;;;;;;;;18.80;45.00;;;;;;487265;243;2161;-44
2021/05/02 10:49:47;;;;;;;;;;;18.80;45.00;;;;;;487241;244;1185;-44
2021/05/02 10:51:48;;;;;;;;;;;18.80;45.00;;;;;;487378;244;1067;-44
2021/05/02 10:53:50;;;;;;;;;;;18.80;45.10;;;;;;487301;243;1163;-44
2021/05/02 10:55:52;;;;;;;;;;;18.70;45.10;;;;;;487652;244;1135;-44
2021/05/02 10:57:52;;;;;;;;;;;18.70;45.10;;;;;;487231;244;2233;-44
2021/05/02 10:59:54;;;;;;;;;;;18.70;45.20;;;;;;487400;244;1061;-44
2021/05/02 11:01:55;;;;;;;;;;;18.70;45.20;;;;;;487499;244;1270;-44
2021/05/02 11:03:56;;;;;;;;;;;18.80;45.10;;;;;;487617;237;1319;-44
2021/05/02 11:05:57;;;;;;;;;;;18.70;45.00;;;;;;487392;244;1151;-44
2021/05/02 11:07:59;;;;;;;;;;;18.70;45.20;;;;;;487397;244;2151;-44
2021/05/02 11:10:00;;;;;;;;;;;18.70;45.10;;;;;;487260;244;2117;-44
2021/05/02 11:12:01;;;;;;;;;;;18.70;45.10;;;;;;487457;244;1180;-44
2021/05/02 11:14:02;;;;;;;;;;;18.70;45.10;;;;;;487512;244;1154;-44
2021/05/02 11:16:04;;;;;;;;;;;18.70;45.20;;;;;;487440;241;1160;-44
2021/05/02 11:18:05;;;;;;;;;;;18.70;45.10;;;;;;487310;243;1058;-44
2021/05/02 11:20:06;;;;;;;;;;;18.70;45.10;;;;;;487352;244;1176;-44
2021/05/02 11:22:08;;;;;;;;;;;18.70;45.10;;;;;;487307;244;1223;-44
2021/05/02 11:24:09;;;;;;;;;;;18.70;45.20;;;;;;487243;244;1129;-44
2021/05/02 11:26:11;;;;;;;;;;;18.70;45.20;;;;;;487224;244;1175;-44
2021/05/02 11:28:11;;;;;;;;;;;18.60;45.20;;;;;;487234;244;2194;-44
2021/05/02 11:30:13;;;;;;;;;;;18.60;45.30;;;;;;487753;244;1077;-44
2021/05/02 11:32:14;;;;;;;;;;;18.60;45.20;;;;;;487659;244;1082;-44
2021/05/02 11:34:15;;;;;;;;;;;18.70;45.20;;;;;;487308;243;1168;-44
2021/05/02 11:36:18;;;;;;;;;;;18.60;45.20;;;;;;487328;243;934;-44
2021/05/02 11:38:18;;;;;;;;;;;18.60;45.30;;;;;;487718;243;2236;-44
2021/05/02 11:40:19;;;;;;;;;;;18.60;45.30;;;;;;487671;244;1072;-44
2021/05/02 11:42:20;;;;;;;;;;;18.60;45.20;;;;;;487343;243;1480;-44
2021/05/02 11:44:22;;;;;;;;;;;18.60;45.10;;;;;;487213;244;1092;-44
2021/05/02 11:46:23;;;;;;;;;;;18.60;45.10;;;;;;487419;244;1674;-44
2021/05/02 11:48:24;;;;;;;;;;;18.60;45.10;;;;;;487195;244;2185;-44
2021/05/02 11:50:26;;;;;;;;;;;18.60;45.10;;;;;;487278;243;1198;-44
2021/05/02 11:52:27;;;;;;;;;;;18.70;45.10;;;;;;487204;243;1276;-44
2021/05/02 11:54:28;;;;;;;;;;;18.70;45.00;;;;;;487691;244;1204;-44
2021/05/02 11:56:30;;;;;;;;;;;18.70;44.90;;;;;;487232;242;1519;-44